Time;durP1;ratioP1;P1;durP2;ratioP2;P2;SDS_P1;SDS_P2;PMS_P1;PMS_P2;Temp;Humidity;BMP_temperature;BMP_pressure;BME280_temperature;BME280_humidity;BME280_pressure;Samples;Min_cycle;Max_cycle;Signal;HPM_P1;HPM_P2
2022/11/06 00:01:21;;;;;;;1.50;1.40;;;21.30;42.10;;;;;;5069556;28;20336;-75
2022/11/06 00:03:47;;;;;;;1.60;1.50;;;21.30;42.10;;;;;;5079738;28;20243;-75
2022/11/06 00:09:12;;;;;;;1.80;1.43;;;21.30;42.00;;;;;;5081048;28;20274;-75
2022/11/06 00:11:39;;;;;;;1.40;1.30;;;21.30;42.10;;;;;;5077465;28;20452;-75
2022/11/06 00:14:05;;;;;;;1.60;1.50;;;21.30;42.10;;;;;;5075361;28;20445;-75
2022/11/06 00:16:30;;;;;;;1.50;1.40;;;21.30;42.00;;;;;;5080779;28;21397;-75
2022/11/06 00:18:59;;;;;;;1.60;1.50;;;21.30;42.00;;;;;;5081297;27;20247;-75
2022/11/06 00:21:26;;;;;;;1.70;1.60;;;21.30;42.10;;;;;;5074525;28;20231;-75
2022/11/06 00:23:53;;;;;;;1.60;1.50;;;21.30;42.10;;;;;;5078075;28;20969;-75
2022/11/06 00:26:24;;;;;;;1.83;1.73;;;21.30;42.00;;;;;;5081121;28;21011;-75
2022/11/06 00:28:50;;;;;;;1.60;1.50;;;21.30;42.00;;;;;;5080453;28;20462;-75
2022/11/06 00:31:18;;;;;;;2.53;1.50;;;21.30;42.00;;;;;;5080179;28;20441;-75
2022/11/06 00:33:44;;;;;;;1.40;1.30;;;21.30;42.00;;;;;;5076446;28;20464;-75
2022/11/06 00:36:16;;;;;;;1.50;1.40;;;21.30;42.00;;;;;;5081343;28;20442;-75
2022/11/06 00:38:42;;;;;;;1.50;1.40;;;21.30;42.00;;;;;;5078346;28;20611;-75
2022/11/06 00:41:11;;;;;;;1.43;1.33;;;21.30;42.00;;;;;;5076984;28;20862;-76
2022/11/06 00:43:37;;;;;;;1.67;1.57;;;21.30;42.00;;;;;;5073133;28;20235;-74
2022/11/06 00:46:05;;;;;;;1.60;1.50;;;21.30;42.00;;;;;;5079259;28;20461;-75
2022/11/06 00:48:32;;;;;;;1.57;1.47;;;21.30;42.10;;;;;;5074725;27;20295;-75
2022/11/06 00:51:22;;;;;;;1.40;1.30;;;21.30;42.10;;;;;;5096475;28;20498;-75
2022/11/06 00:53:53;;;;;;;1.50;1.40;;;21.30;42.00;;;;;;5060433;28;20466;-75
2022/11/06 00:56:19;;;;;;;1.40;1.30;;;21.30;42.00;;;;;;5067472;28;20465;-75
2022/11/06 00:58:46;;;;;;;1.67;1.57;;;21.30;42.00;;;;;;5072598;28;20525;-74
2022/11/06 01:01:26;;;;;;;1.53;1.43;;;21.30;42.00;;;;;;5077234;28;20458;-74
2022/11/06 01:03:54;;;;;;;1.57;1.47;;;21.30;42.00;;;;;;5092456;28;20465;-75
2022/11/06 01:06:22;;;;;;;1.40;1.30;;;21.30;42.00;;;;;;5081422;27;20454;-75
2022/11/06 01:08:48;;;;;;;1.30;1.20;;;21.30;42.00;;;;;;5066525;28;20466;-75
2022/11/06 01:11:17;;;;;;;1.63;1.53;;;21.30;42.00;;;;;;5077766;28;20424;-75
2022/11/06 01:13:44;;;;;;;1.70;1.60;;;21.30;42.00;;;;;;5076544;28;20521;-76
2022/11/06 01:16:12;;;;;;;1.60;1.50;;;21.30;42.00;;;;;;5077189;28;20457;-74
2022/11/06 01:18:38;;;;;;;1.50;1.40;;;21.30;42.00;;;;;;5079801;28;21005;-75
2022/11/06 01:21:10;;;;;;;1.40;1.30;;;21.30;41.90;;;;;;5078282;28;20459;-75
2022/11/06 01:23:36;;;;;;;2.50;1.40;;;21.30;41.90;;;;;;5072552;28;20532;-75
2022/11/06 01:26:04;;;;;;;1.40;1.30;;;21.30;42.00;;;;;;5081141;28;21015;-75
2022/11/06 01:28:30;;;;;;;1.40;1.30;;;21.30;41.90;;;;;;5078094;28;20221;-75
2022/11/06 01:30:56;;;;;;;1.63;1.53;;;21.30;42.00;;;;;;5079837;28;20455;-75
2022/11/06 01:33:22;;;;;;;1.50;1.40;;;21.30;42.00;;;;;;5076053;28;20462;-75
2022/11/06 01:35:49;;;;;;;1.37;1.27;;;21.30;42.00;;;;;;5081111;28;20267;-75
2022/11/06 01:38:15;;;;;;;1.50;1.33;;;21.30;42.00;;;;;;5076597;28;20471;-75
2022/11/06 01:40:43;;;;;;;1.70;1.60;;;21.30;42.00;;;;;;5079904;28;20562;-75
2022/11/06 01:43:42;;;;;;;1.47;1.37;;;21.30;42.00;;;;;;5070543;28;20461;-75
2022/11/06 01:46:08;;;;;;;1.23;1.13;;;21.30;42.00;;;;;;5070482;28;20454;-75
2022/11/06 01:48:35;;;;;;;1.30;1.20;;;21.30;42.00;;;;;;5079894;28;21017;-75
2022/11/06 01:51:00;;;;;;;1.40;1.30;;;21.30;41.90;;;;;;5076607;28;20785;-75
2022/11/06 01:53:26;;;;;;;1.73;1.63;;;21.30;41.90;;;;;;5067979;28;20487;-74
2022/11/06 01:55:56;;;;;;;1.50;1.40;;;21.30;42.00;;;;;;5082222;28;20259;-75
2022/11/06 01:58:25;;;;;;;1.60;1.50;;;21.30;42.00;;;;;;5078625;28;20707;-75
2022/11/06 02:00:51;;;;;;;1.30;1.20;;;21.30;41.90;;;;;;5078343;28;20601;-75
2022/11/06 02:03:17;;;;;;;4.33;1.20;;;21.30;42.00;;;;;;5075069;28;20534;-74
2022/11/06 02:05:43;;;;;;;1.30;1.20;;;21.30;41.90;;;;;;5079563;28;20220;-74
2022/11/06 02:08:12;;;;;;;1.50;1.40;;;21.30;41.90;;;;;;5070439;28;20453;-75
2022/11/06 02:10:38;;;;;;;1.33;1.23;;;21.30;41.90;;;;;;5073260;28;20540;-74
2022/11/06 02:13:06;;;;;;;1.33;1.23;;;21.30;41.90;;;;;;5068568;28;21047;-74
2022/11/06 02:15:53;;;;;;;1.10;1.00;;;21.30;41.90;;;;;;5078065;28;20466;-74
2022/11/06 02:18:43;;;;;;;1.40;1.30;;;21.30;41.90;;;;;;5036027;28;20827;-74
2022/11/06 02:21:27;;;;;;;2.03;1.30;;;21.30;41.90;;;;;;5026182;28;20949;-74
2022/11/06 02:24:15;;;;;;;1.63;1.40;;;21.30;42.00;;;;;;5038582;28;20529;-74
2022/11/06 02:26:49;;;;;;;1.40;1.30;;;21.30;41.90;;;;;;5037844;28;20463;-74
2022/11/06 02:29:34;;;;;;;1.70;1.60;;;21.30;42.00;;;;;;5039608;28;20458;-75
2022/11/06 02:32:06;;;;;;;1.30;1.20;;;21.30;41.90;;;;;;5056329;28;20534;-74
2022/11/06 02:34:35;;;;;;;1.30;1.13;;;21.30;41.90;;;;;;5038072;28;20462;-74
2022/11/06 02:37:07;;;;;;;1.10;1.00;;;21.30;42.70;;;;;;5039568;28;21087;-74
2022/11/06 02:39:37;;;;;;;1.40;1.30;;;21.30;41.90;;;;;;5032326;28;20551;-74
2022/11/06 02:42:04;;;;;;;1.30;1.20;;;21.30;41.90;;;;;;5035671;28;20454;-74
2022/11/06 02:44:31;;;;;;;1.30;1.20;;;21.30;41.90;;;;;;5038228;28;20550;-73
2022/11/06 02:47:02;;;;;;;1.43;1.33;;;21.30;41.90;;;;;;5041865;28;20522;-74
2022/11/06 02:49:43;;;;;;;1.30;1.20;;;21.30;41.90;;;;;;5054345;28;20993;-74
2022/11/06 02:52:15;;;;;;;1.20;1.10;;;21.30;41.90;;;;;;5041002;28;20474;-74
2022/11/06 02:54:46;;;;;;;1.30;1.20;;;21.30;41.90;;;;;;5042030;28;20455;-74
2022/11/06 02:57:14;;;;;;;1.50;1.40;;;21.30;41.90;;;;;;5039966;28;20447;-74
2022/11/06 02:59:53;;;;;;;2.90;1.27;;;21.30;41.90;;;;;;5038002;28;20513;-74
2022/11/06 03:02:32;;;;;;;1.40;1.30;;;21.30;41.90;;;;;;5037168;28;20495;-74
2022/11/06 03:05:10;;;;;;;1.47;1.37;;;21.30;41.90;;;;;;5026777;28;20446;-74
2022/11/06 03:08:14;;;;;;;1.30;1.20;;;21.30;41.90;;;;;;5044817;28;20451;-74
2022/11/06 03:10:49;;;;;;;1.20;1.10;;;21.30;41.90;;;;;;5015732;28;20485;-74
2022/11/06 03:13:28;;;;;;;1.40;1.30;;;21.20;41.80;;;;;;5037209;28;20996;-74
2022/11/06 03:16:17;;;;;;;1.23;1.13;;;21.20;41.80;;;;;;5044452;28;21000;-74
2022/11/06 03:19:06;;;;;;;1.30;1.20;;;21.20;41.70;;;;;;5076226;28;20982;-74
2022/11/06 03:21:34;;;;;;;1.27;1.17;;;21.30;41.90;;;;;;5078291;28;21059;-74
2022/11/06 03:24:08;;;;;;;1.20;1.10;;;21.20;41.80;;;;;;5083422;28;20441;-74
2022/11/06 03:26:37;;;;;;;1.60;1.50;;;21.20;41.80;;;;;;5071527;28;20446;-74
2022/11/06 03:29:36;;;;;;;1.30;1.20;;;21.20;41.80;;;;;;5076100;28;20441;-74
2022/11/06 03:32:13;;;;;;;1.30;1.20;;;21.20;41.80;;;;;;5082900;28;20437;-74
2022/11/06 03:34:51;;;;;;;2.27;1.10;;;21.20;41.80;;;;;;5070887;28;20441;-74
2022/11/06 03:37:23;;;;;;;1.20;1.10;;;21.20;41.80;;;;;;5080983;28;20441;-74
2022/11/06 03:39:52;;;;;;;1.27;1.17;;;21.20;41.80;;;;;;5079881;28;21000;-74
2022/11/06 03:42:22;;;;;;;1.40;1.30;;;21.20;41.80;;;;;;5071964;28;20564;-73
2022/11/06 03:44:54;;;;;;;1.30;1.20;;;21.20;41.80;;;;;;5072160;28;20465;-74
2022/11/06 03:47:22;;;;;;;1.40;1.30;;;21.20;41.80;;;;;;5081126;28;20576;-74
2022/11/06 03:50:05;;;;;;;1.07;0.97;;;21.20;41.80;;;;;;5080899;28;20854;-74
2022/11/06 03:52:45;;;;;;;1.10;1.00;;;21.20;41.80;;;;;;5074486;28;21253;-74
2022/11/06 03:55:17;;;;;;;1.30;1.20;;;21.20;41.70;;;;;;5080911;28;20459;-73
2022/11/06 03:57:52;;;;;;;1.40;1.30;;;21.20;41.80;;;;;;5067020;28;20473;-74
2022/11/06 04:00:21;;;;;;;2.13;1.37;;;21.20;41.70;;;;;;5078688;28;20469;-74
2022/11/06 04:02:51;;;;;;;1.20;1.10;;;21.20;41.70;;;;;;5078421;28;20445;-74
2022/11/06 04:05:22;;;;;;;1.30;1.03;;;21.20;41.70;;;;;;5083097;28;20441;-74
2022/11/06 04:16:11;;;;;;;1.10;1.00;;;21.20;41.70;;;;;;5076858;28;20525;-74
2022/11/06 04:18:36;;;;;;;1.27;1.00;;;21.20;41.70;;;;;;5090733;28;20540;-74
2022/11/06 04:21:21;;;;;;;1.20;1.10;;;21.20;41.70;;;;;;5075042;28;20714;-74
2022/11/06 04:27:02;;;;;;;1.13;1.03;;;21.20;41.60;;;;;;5078456;28;20447;-73
2022/11/06 04:30:01;;;;;;;1.17;1.07;;;21.20;41.60;;;;;;5070719;28;20420;-74
2022/11/06 04:32:52;;;;;;;1.07;1.00;;;21.20;41.70;;;;;;5080809;28;20465;-74
2022/11/06 04:35:45;;;;;;;0.83;0.83;;;21.20;41.70;;;;;;5078756;28;20484;-74
2022/11/06 04:38:38;;;;;;;1.20;1.00;;;21.20;41.70;;;;;;5079594;28;20963;-74
2022/11/06 04:41:48;;;;;;;1.20;1.10;;;21.20;41.70;;;;;;5079800;28;20930;-74
2022/11/06 04:44:34;;;;;;;1.33;1.23;;;21.20;41.70;;;;;;5068960;28;20809;-74
2022/11/06 04:47:07;;;;;;;1.17;1.07;;;21.20;41.70;;;;;;5070966;28;20454;-74
2022/11/06 04:49:36;;;;;;;0.90;0.90;;;21.20;41.70;;;;;;5078938;28;20453;-74
2022/11/06 04:52:06;;;;;;;1.13;1.03;;;21.20;41.70;;;;;;5074322;28;20516;-74
2022/11/06 04:54:32;;;;;;;0.90;0.90;;;21.20;41.60;;;;;;5077667;28;20449;-74
2022/11/06 04:57:01;;;;;;;1.30;1.20;;;21.20;41.60;;;;;;5080648;28;20541;-74
2022/11/06 04:59:29;;;;;;;1.77;1.10;;;21.20;41.60;;;;;;5081695;28;20499;-74
2022/11/06 05:01:55;;;;;;;1.20;1.10;;;21.20;41.60;;;;;;5080689;28;20465;-75
2022/11/06 05:04:20;;;;;;;3.27;1.00;;;21.20;41.60;;;;;;5063059;28;21000;-74
2022/11/06 05:06:46;;;;;;;1.10;1.00;;;21.20;41.60;;;;;;5081479;28;20216;-74
2022/11/06 05:09:11;;;;;;;1.73;1.10;;;21.20;42.30;;;;;;5071855;28;20229;-73
2022/11/06 05:11:37;;;;;;;1.10;1.00;;;21.20;41.60;;;;;;5077569;28;20316;-74
2022/11/06 05:14:03;;;;;;;1.10;1.00;;;21.20;41.50;;;;;;5080249;28;20215;-74
2022/11/06 05:16:28;;;;;;;1.10;1.00;;;21.30;41.60;;;;;;5091317;22;20803;-62
2022/11/06 05:18:54;;;;;;;1.00;0.90;;;21.20;41.50;;;;;;5048829;28;20240;-61
2022/11/06 05:24:04;;;;;;;1.20;1.10;;;21.20;42.30;;;;;;5060826;28;20278;-62
2022/11/06 05:26:29;;;;;;;2.33;1.10;;;21.30;41.60;;;;;;5060576;28;20454;-62
2022/11/06 05:28:55;;;;;;;1.63;1.10;;;21.20;41.40;;;;;;5060655;28;20787;-62
2022/11/06 05:31:20;;;;;;;1.10;1.00;;;21.20;41.50;;;;;;5058791;28;20722;-62
2022/11/06 05:33:46;;;;;;;1.00;0.90;;;21.20;41.50;;;;;;5060694;28;20744;-62
2022/11/06 05:36:11;;;;;;;1.20;1.10;;;21.20;41.40;;;;;;5061014;28;20649;-62
2022/11/06 05:38:37;;;;;;;1.10;1.00;;;21.20;41.40;;;;;;5059101;28;20243;-62
2022/11/06 05:41:03;;;;;;;0.97;0.90;;;21.20;41.40;;;;;;5059843;28;20243;-63
2022/11/06 05:43:28;;;;;;;1.13;1.03;;;21.30;41.50;;;;;;5054814;28;20932;-62
2022/11/06 05:45:54;;;;;;;1.10;1.00;;;21.20;41.40;;;;;;5061030;28;20225;-62
2022/11/06 05:48:22;;;;;;;1.10;1.00;;;21.30;41.40;;;;;;5058777;28;20216;-62
2022/11/06 05:50:48;;;;;;;1.00;0.90;;;21.20;41.40;;;;;;5056323;28;20226;-62
2022/11/06 05:53:13;;;;;;;1.37;1.00;;;21.30;41.40;;;;;;5059875;28;20453;-62
2022/11/06 05:55:39;;;;;;;1.20;1.00;;;21.30;41.50;;;;;;5061242;28;20222;-62
2022/11/06 05:58:05;;;;;;;1.07;0.97;;;21.20;41.30;;;;;;5059757;28;20586;-62
2022/11/06 06:00:30;;;;;;;1.23;1.13;;;21.20;41.40;;;;;;5042330;28;20237;-62
2022/11/06 06:02:56;;;;;;;1.73;0.90;;;21.30;41.50;;;;;;5060140;28;20225;-62
2022/11/06 06:05:21;;;;;;;1.20;1.10;;;21.30;41.50;;;;;;5060653;28;20229;-62
2022/11/06 06:07:46;;;;;;;1.63;0.80;;;21.30;41.50;;;;;;5055600;28;20559;-62
2022/11/06 06:10:12;;;;;;;1.13;1.03;;;21.30;41.50;;;;;;5058139;28;20228;-62
2022/11/06 06:12:38;;;;;;;1.60;1.00;;;21.30;41.50;;;;;;5040933;28;20244;-62
2022/11/06 06:15:05;;;;;;;2.40;1.20;;;21.30;41.40;;;;;;5058734;28;20236;-62
2022/11/06 06:17:30;;;;;;;1.10;1.00;;;21.30;41.40;;;;;;5059762;28;20249;-62
2022/11/06 06:19:56;;;;;;;1.63;0.90;;;21.20;41.40;;;;;;5057683;28;20461;-62
2022/11/06 06:22:21;;;;;;;1.10;1.00;;;21.30;41.40;;;;;;5061192;28;20233;-63
2022/11/06 06:24:47;;;;;;;1.40;1.20;;;21.30;41.40;;;;;;5059652;28;20765;-62
2022/11/06 06:27:12;;;;;;;1.40;0.93;;;21.30;41.40;;;;;;5064500;28;20819;-62
2022/11/06 06:29:38;;;;;;;0.90;0.83;;;21.30;41.40;;;;;;5064482;28;20267;-61
2022/11/06 06:32:04;;;;;;;1.10;1.00;;;21.30;41.40;;;;;;5061549;28;20236;-63
2022/11/06 06:34:29;;;;;;;1.10;1.00;;;21.30;41.40;;;;;;5062382;28;20225;-63
2022/11/06 06:36:55;;;;;;;1.00;0.90;;;21.30;41.50;;;;;;5066194;28;20446;-63
2022/11/06 06:39:21;;;;;;;1.03;0.93;;;21.30;41.40;;;;;;5063576;28;20225;-62
2022/11/06 06:41:47;;;;;;;2.23;0.80;;;21.30;41.30;;;;;;5062898;28;20226;-62
2022/11/06 06:44:13;;;;;;;1.23;0.90;;;21.30;41.30;;;;;;5062480;28;20222;-63
2022/11/06 06:46:39;;;;;;;1.20;1.10;;;21.30;41.30;;;;;;5063372;28;20462;-63
2022/11/06 06:49:05;;;;;;;0.97;0.93;;;21.30;41.30;;;;;;5063324;28;20470;-64
2022/11/06 06:51:30;;;;;;;1.27;0.97;;;21.30;41.30;;;;;;5060257;28;20245;-63
2022/11/06 06:53:56;;;;;;;2.30;1.10;;;21.30;41.30;;;;;;5059976;28;20301;-63
2022/11/06 06:56:22;;;;;;;1.10;1.00;;;21.30;41.20;;;;;;5063191;28;20224;-63
2022/11/06 06:58:48;;;;;;;1.10;1.00;;;21.30;41.20;;;;;;5059525;28;20748;-62
2022/11/06 07:01:13;;;;;;;1.30;1.20;;;21.30;41.20;;;;;;5064288;28;20233;-63
2022/11/06 07:03:39;;;;;;;1.00;0.90;;;21.30;41.30;;;;;;5063333;28;20302;-62
2022/11/06 07:06:05;;;;;;;1.73;1.10;;;21.30;41.20;;;;;;5064986;28;20217;-62
2022/11/06 07:08:32;;;;;;;1.30;1.20;;;21.30;41.30;;;;;;5061785;28;20232;-62
2022/11/06 07:11:01;;;;;;;1.10;1.00;;;21.30;41.20;;;;;;5063355;28;20528;-63
2022/11/06 07:13:27;;;;;;;1.07;0.97;;;21.30;41.20;;;;;;5061501;28;20428;-62
2022/11/06 07:15:53;;;;;;;1.40;1.30;;;21.30;41.20;;;;;;5058945;28;20949;-63
2022/11/06 07:18:18;;;;;;;1.17;1.07;;;21.30;41.20;;;;;;5059729;28;20225;-63
2022/11/06 07:20:44;;;;;;;1.10;1.00;;;21.30;41.20;;;;;;5058014;28;20946;-62
2022/11/06 07:23:09;;;;;;;1.10;1.00;;;21.30;41.20;;;;;;5061781;28;20225;-62
2022/11/06 07:25:36;;;;;;;1.30;1.20;;;21.30;41.20;;;;;;5058700;28;20443;-62
2022/11/06 07:28:03;;;;;;;1.43;1.10;;;21.30;41.20;;;;;;5056967;28;20272;-62
2022/11/06 07:30:29;;;;;;;1.00;0.90;;;21.30;41.20;;;;;;5058820;28;20501;-62
2022/11/06 07:32:55;;;;;;;2.50;1.20;;;21.30;41.20;;;;;;5058572;28;20537;-62
2022/11/06 07:35:21;;;;;;;1.20;1.10;;;21.20;41.20;;;;;;5057455;28;20570;-62
2022/11/06 07:37:46;;;;;;;1.20;1.00;;;21.30;41.20;;;;;;5060736;28;20213;-62
2022/11/06 07:40:13;;;;;;;1.27;1.10;;;21.30;41.20;;;;;;5057377;28;20700;-62
2022/11/06 07:42:39;;;;;;;1.30;1.13;;;21.30;41.10;;;;;;5058343;28;20272;-62
2022/11/06 07:45:05;;;;;;;2.17;1.20;;;21.30;41.10;;;;;;5058557;28;20463;-63
2022/11/06 07:47:31;;;;;;;1.43;1.20;;;21.30;41.10;;;;;;5058648;28;20230;-63
2022/11/06 07:49:56;;;;;;;1.50;1.40;;;21.30;41.10;;;;;;5056743;28;20447;-62
2022/11/06 07:52:22;;;;;;;3.37;1.10;;;21.30;41.10;;;;;;5060473;28;20218;-61
2022/11/06 07:54:47;;;;;;;4.53;1.20;;;21.30;41.10;;;;;;5058760;28;20336;-62
2022/11/06 07:57:13;;;;;;;3.93;1.30;;;21.30;41.10;;;;;;5059230;28;20221;-61
2022/11/06 07:59:39;;;;;;;1.90;1.53;;;21.30;41.20;;;;;;5056351;28;20239;-61
2022/11/06 08:02:05;;;;;;;1.40;1.27;;;21.30;41.20;;;;;;5054036;28;20220;-61
2022/11/06 08:04:31;;;;;;;1.40;1.10;;;21.30;41.20;;;;;;5036912;28;20229;-60
2022/11/06 08:06:57;;;;;;;1.20;0.90;;;21.30;41.20;;;;;;5060015;28;20523;-61
2022/11/06 08:09:24;;;;;;;2.50;1.00;;;21.30;41.20;;;;;;5056483;28;20217;-62
2022/11/06 08:11:49;;;;;;;3.90;1.10;;;21.30;41.20;;;;;;5057711;28;20221;-62
2022/11/06 08:14:15;;;;;;;1.73;1.10;;;21.30;41.20;;;;;;5053535;28;20841;-62
2022/11/06 08:16:40;;;;;;;1.47;1.10;;;21.30;41.30;;;;;;5056672;28;20225;-62
2022/11/06 08:19:06;;;;;;;4.70;1.03;;;21.30;41.30;;;;;;5057460;28;20220;-61
2022/11/06 08:21:32;;;;;;;0.97;0.90;;;21.30;41.30;;;;;;5059531;28;20349;-59
2022/11/06 08:23:57;;;;;;;4.20;1.00;;;21.30;41.30;;;;;;5055589;28;21299;-61
2022/11/06 08:26:23;;;;;;;2.63;1.20;;;21.30;41.30;;;;;;5059756;28;20231;-60
2022/11/06 08:28:48;;;;;;;1.20;1.10;;;21.30;41.30;;;;;;5043359;28;20659;-59
2022/11/06 08:31:14;;;;;;;1.10;1.00;;;21.30;41.40;;;;;;5060205;28;20229;-60
2022/11/06 08:33:40;;;;;;;1.00;0.90;;;21.30;41.30;;;;;;5061659;28;20329;-59
2022/11/06 08:36:07;;;;;;;1.80;1.23;;;21.30;41.30;;;;;;5063814;28;20221;-59
2022/11/06 08:38:33;;;;;;;1.10;1.00;;;21.30;41.30;;;;;;5058741;28;20443;-59
2022/11/06 08:41:03;;;;;;;1.13;1.00;;;21.30;42.20;;;;;;5059438;28;20599;-58
2022/11/06 08:43:29;;;;;;;1.20;1.07;;;21.30;41.50;;;;;;5061289;28;20229;-61
2022/11/06 08:45:54;;;;;;;1.20;1.10;;;21.30;41.40;;;;;;5056780;28;20463;-59
2022/11/06 08:48:20;;;;;;;3.00;0.93;;;21.30;41.50;;;;;;5055707;28;22165;-59
2022/11/06 08:50:45;;;;;;;2.20;1.30;;;21.30;42.20;;;;;;5055366;28;20221;-59
2022/11/06 08:53:11;;;;;;;2.40;1.00;;;21.30;41.50;;;;;;5060868;28;20198;-59
2022/11/06 08:55:38;;;;;;;1.60;1.20;;;21.30;41.50;;;;;;5051965;28;20742;-60
2022/11/06 08:58:05;;;;;;;4.77;1.00;;;21.30;41.50;;;;;;5058824;28;20669;-60
2022/11/06 09:00:31;;;;;;;1.80;1.00;;;21.30;41.50;;;;;;5057765;28;20473;-59
2022/11/06 09:02:58;;;;;;;2.00;1.00;;;21.30;41.40;;;;;;5062765;28;20458;-60
2022/11/06 09:05:23;;;;;;;1.30;1.10;;;21.30;41.50;;;;;;5061120;28;20221;-60
2022/11/06 09:07:49;;;;;;;2.67;1.17;;;21.30;41.40;;;;;;5060941;28;20588;-59
2022/11/06 09:10:14;;;;;;;1.10;1.00;;;21.30;41.40;;;;;;5056997;28;20583;-60
2022/11/06 09:12:40;;;;;;;2.20;1.07;;;21.30;41.30;;;;;;5057270;28;20734;-60
2022/11/06 09:15:06;;;;;;;1.40;1.10;;;21.30;41.50;;;;;;5057969;28;20300;-60
2022/11/06 09:17:32;;;;;;;1.57;1.47;;;21.30;41.40;;;;;;5053206;28;20737;-60
2022/11/06 09:19:57;;;;;;;1.87;0.90;;;21.30;41.40;;;;;;5054204;28;20229;-60
2022/11/06 09:22:23;;;;;;;1.20;1.00;;;21.30;41.30;;;;;;5051253;28;20243;-60
2022/11/06 09:24:48;;;;;;;2.07;1.00;;;21.40;41.60;;;;;;5051486;28;20225;-61
2022/11/06 09:27:14;;;;;;;1.37;1.00;;;21.30;41.40;;;;;;5049981;28;20209;-62
2022/11/06 09:29:42;;;;;;;3.63;1.00;;;21.30;41.40;;;;;;5048945;28;21051;-62
2022/11/06 09:32:09;;;;;;;4.60;1.10;;;21.30;41.30;;;;;;5053510;28;20827;-62
2022/11/06 09:34:34;;;;;;;1.50;0.90;;;21.30;41.40;;;;;;5048371;28;21210;-62
2022/11/06 09:37:01;;;;;;;1.10;1.00;;;21.30;41.30;;;;;;5054447;28;20434;-62
2022/11/06 09:39:27;;;;;;;1.30;1.13;;;21.30;41.30;;;;;;5054940;28;20221;-62
2022/11/06 09:41:58;;;;;;;1.20;1.10;;;21.30;41.30;;;;;;5055181;28;20846;-62
2022/11/06 09:44:42;;;;;;;1.10;1.00;;;21.30;41.30;;;;;;5057719;28;20221;-61
2022/11/06 09:47:17;;;;;;;1.37;1.20;;;21.30;41.30;;;;;;5059862;28;20461;-61
2022/11/06 09:49:52;;;;;;;2.10;1.20;;;21.30;41.50;;;;;;5055493;28;20506;-62
2022/11/06 09:52:40;;;;;;;1.73;1.00;;;21.30;41.30;;;;;;5060068;28;20548;-61
2022/11/06 09:55:19;;;;;;;1.53;1.10;;;21.30;41.40;;;;;;5056037;28;20841;-61
2022/11/06 09:57:53;;;;;;;2.33;1.10;;;21.30;41.40;;;;;;5054146;28;20449;-61
2022/11/06 10:00:18;;;;;;;2.10;1.23;;;21.30;41.30;;;;;;5058259;28;20987;-62
2022/11/06 10:02:47;;;;;;;1.27;0.97;;;21.30;41.40;;;;;;5056967;28;20458;-62
2022/11/06 10:05:35;;;;;;;0.97;0.90;;;21.30;41.40;;;;;;5056812;28;20308;-61
2022/11/06 10:08:17;;;;;;;1.40;1.10;;;21.30;41.40;;;;;;5055836;28;20481;-61
2022/11/06 10:11:12;;;;;;;2.10;1.00;;;21.30;41.50;;;;;;5056490;28;20472;-62
2022/11/06 10:14:02;;;;;;;1.47;0.90;;;21.30;41.40;;;;;;5059071;28;20476;-61
2022/11/06 10:16:34;;;;;;;1.43;1.00;;;21.30;41.40;;;;;;5057262;28;20474;-62
2022/11/06 10:19:11;;;;;;;1.40;1.00;;;21.30;41.50;;;;;;5057334;28;20450;-61
2022/11/06 10:21:59;;;;;;;1.20;1.10;;;21.30;41.50;;;;;;5056692;28;20488;-61
2022/11/06 10:24:43;;;;;;;2.73;1.30;;;21.30;41.40;;;;;;5058077;28;20587;-61
2022/11/06 10:27:13;;;;;;;1.20;1.10;;;21.30;41.50;;;;;;5058893;28;20466;-62
2022/11/06 10:30:01;;;;;;;1.10;1.00;;;21.30;41.50;;;;;;5056652;28;20466;-61
2022/11/06 10:33:14;;;;;;;1.83;0.90;;;21.30;41.50;;;;;;5057485;28;20497;-61
2022/11/06 10:35:48;;;;;;;1.17;1.07;;;21.30;41.50;;;;;;5056434;28;20500;-61
2022/11/06 10:38:39;;;;;;;1.53;1.00;;;21.30;41.50;;;;;;5059185;28;20837;-61
2022/11/06 10:41:17;;;;;;;1.67;1.23;;;21.30;41.50;;;;;;5050948;28;20462;-61
2022/11/06 10:43:47;;;;;;;0.97;0.90;;;21.30;41.50;;;;;;5050267;28;20462;-62
2022/11/06 10:46:39;;;;;;;4.10;1.63;;;21.30;41.50;;;;;;5057928;28;20450;-61
2022/11/06 10:49:22;;;;;;;2.03;1.20;;;21.40;41.30;;;;;;5043848;28;20474;-61
2022/11/06 10:52:16;;;;;;;1.87;0.90;;;21.40;41.30;;;;;;5049761;28;20569;-61
2022/11/06 10:55:08;;;;;;;3.70;0.90;;;21.40;41.30;;;;;;5047109;28;20829;-62
2022/11/06 10:58:09;;;;;;;2.50;1.20;;;21.40;41.40;;;;;;5052360;28;20496;-63
2022/11/06 11:00:35;;;;;;;2.07;1.10;;;21.40;41.40;;;;;;5041717;28;20470;-62
2022/11/06 11:03:05;;;;;;;4.97;1.30;;;21.40;41.50;;;;;;5053667;28;20445;-61
2022/11/06 11:05:40;;;;;;;1.67;1.00;;;21.40;41.50;;;;;;5051173;28;20828;-62
2022/11/06 11:08:06;;;;;;;1.20;1.10;;;21.40;41.30;;;;;;5055198;28;20465;-62
2022/11/06 11:10:34;;;;;;;1.27;0.97;;;21.40;41.50;;;;;;5055044;28;20531;-62
2022/11/06 11:13:04;;;;;;;1.10;1.00;;;21.40;41.50;;;;;;5059724;28;20496;-62
2022/11/06 11:15:37;;;;;;;4.80;1.20;;;21.40;41.50;;;;;;5056721;28;20501;-62
2022/11/06 11:18:31;;;;;;;4.70;1.10;;;21.40;42.20;;;;;;5058826;28;20493;-62
2022/11/06 11:21:12;;;;;;;4.60;1.10;;;21.40;41.50;;;;;;5054101;28;20549;-63
2022/11/06 11:23:38;;;;;;;2.03;0.90;;;21.40;41.50;;;;;;5057354;28;21253;-62
2022/11/06 11:26:26;;;;;;;1.87;1.00;;;21.50;41.70;;;;;;5051985;28;20453;-66
2022/11/06 11:28:55;;;;;;;1.50;1.07;;;21.40;41.60;;;;;;5034984;28;20229;-64
2022/11/06 11:31:34;;;;;;;1.03;0.93;;;21.50;41.70;;;;;;5057870;28;20466;-63
2022/11/06 11:34:02;;;;;;;7.20;3.70;;;21.50;41.70;;;;;;5033792;28;20991;-63
2022/11/06 11:36:55;;;;;;;6.30;3.20;;;21.50;41.70;;;;;;5034832;28;20527;-63
2022/11/06 11:39:36;;;;;;;2.93;2.73;;;21.50;41.80;;;;;;5048021;28;21022;-63
2022/11/06 11:42:23;;;;;;;9.00;4.30;;;21.50;41.70;;;;;;5049351;28;20553;-62
2022/11/06 11:45:07;;;;;;;10.13;5.60;;;21.50;41.70;;;;;;5034734;28;20464;-63
2022/11/06 11:47:32;;;;;;;9.63;5.57;;;21.50;41.80;;;;;;5050562;28;20465;-63
2022/11/06 11:50:17;;;;;;;3.63;3.33;;;21.50;41.80;;;;;;5052779;28;20466;-63
2022/11/06 11:52:49;;;;;;;4.13;3.37;;;21.50;41.80;;;;;;5052097;28;20214;-63
2022/11/06 11:55:20;;;;;;;3.87;3.20;;;21.50;42.60;;;;;;5050386;28;20486;-64
2022/11/06 11:57:49;;;;;;;3.80;2.63;;;21.50;41.80;;;;;;5049782;28;20496;-60
2022/11/06 12:00:17;;;;;;;5.37;2.87;;;21.40;41.80;;;;;;5052737;28;20470;-64
2022/11/06 12:02:53;;;;;;;6.67;2.53;;;21.50;41.90;;;;;;5051405;28;20465;-63
2022/11/06 12:05:25;;;;;;;4.10;2.70;;;21.50;41.90;;;;;;5051728;28;20465;-63
2022/11/06 12:07:56;;;;;;;3.43;2.53;;;21.40;41.90;;;;;;5055213;28;20469;-64
2022/11/06 12:10:34;;;;;;;4.97;2.60;;;21.50;42.70;;;;;;5055137;28;20462;-63
2022/11/06 12:13:03;;;;;;;2.30;2.10;;;21.50;42.00;;;;;;5056752;28;20461;-63
2022/11/06 12:15:32;;;;;;;3.93;2.20;;;21.50;42.00;;;;;;5052336;28;20477;-62
2022/11/06 12:18:04;;;;;;;2.13;1.87;;;21.50;42.00;;;;;;5031915;28;20479;-62
2022/11/06 12:20:57;;;;;;;2.63;2.40;;;21.40;41.90;;;;;;5034411;28;20478;-62
2022/11/06 12:23:40;;;;;;;2.40;1.83;;;21.40;41.90;;;;;;5030584;28;20471;-62
2022/11/06 12:26:41;;;;;;;3.73;1.90;;;21.40;42.00;;;;;;5030352;28;20475;-63
2022/11/06 12:29:15;;;;;;;3.47;2.20;;;21.40;41.90;;;;;;5032821;28;20451;-63
2022/11/06 12:31:57;;;;;;;3.57;1.77;;;21.40;41.90;;;;;;5033670;28;20466;-64
2022/11/06 12:34:27;;;;;;;3.00;2.23;;;21.40;42.00;;;;;;5032855;28;21995;-63
2022/11/06 12:37:14;;;;;;;2.87;1.93;;;21.40;42.00;;;;;;5033741;28;21126;-63
2022/11/06 12:39:45;;;;;;;4.83;2.23;;;21.40;41.90;;;;;;5034035;28;21071;-63
2022/11/06 12:42:13;;;;;;;4.40;1.73;;;21.40;42.00;;;;;;5037646;28;20491;-64
2022/11/06 12:44:38;;;;;;;1.73;1.50;;;21.40;41.90;;;;;;5040600;28;20471;-63
2022/11/06 12:47:19;;;;;;;3.20;1.97;;;21.40;41.90;;;;;;5037955;28;20460;-63
2022/11/06 12:50:25;;;;;;;4.77;2.53;;;21.40;41.90;;;;;;5034759;28;20228;-63
2022/11/06 12:52:54;;;;;;;3.03;1.60;;;21.40;41.90;;;;;;5036533;28;21170;-63
2022/11/06 12:55:32;;;;;;;2.20;1.77;;;21.40;41.90;;;;;;5037140;28;20466;-63
2022/11/06 12:58:03;;;;;;;1.70;1.60;;;21.40;41.90;;;;;;5039685;28;20560;-63
2022/11/06 13:01:04;;;;;;;4.20;2.30;;;21.40;41.90;;;;;;5039214;28;20446;-64
2022/11/06 13:04:02;;;;;;;3.13;1.60;;;21.40;41.90;;;;;;5035559;28;20458;-63
2022/11/06 13:06:57;;;;;;;2.57;1.50;;;21.40;41.80;;;;;;5037773;28;20497;-63
2022/11/06 13:09:32;;;;;;;1.77;1.60;;;21.30;41.70;;;;;;5036754;28;20486;-63
2022/11/06 13:12:21;;;;;;;2.60;1.70;;;21.40;41.80;;;;;;5039396;28;20458;-63
2022/11/06 13:15:01;;;;;;;2.23;1.50;;;21.30;41.70;;;;;;5038266;28;21037;-63
2022/11/06 13:17:31;;;;;;;1.83;1.60;;;21.30;41.70;;;;;;5050266;28;20961;-63
2022/11/06 13:20:20;;;;;;;1.73;1.60;;;21.30;41.70;;;;;;5054543;28;20506;-63
2022/11/06 13:23:11;;;;;;;1.77;1.67;;;21.30;41.70;;;;;;5057007;28;20446;-63
2022/11/06 13:25:56;;;;;;;1.57;1.40;;;21.30;41.70;;;;;;5057104;28;20485;-63
2022/11/06 13:28:25;;;;;;;2.03;1.37;;;21.30;41.70;;;;;;5057884;28;20443;-63
2022/11/06 13:30:52;;;;;;;1.33;1.23;;;21.30;41.70;;;;;;5059483;28;20504;-63